createdAt,value
2023-03-19T00:01:09.211Z,100974.44
2023-03-19T00:06:15.836Z,100986.22
2023-03-19T00:11:19.976Z,100996.34
2023-03-19T00:16:24.047Z,100987.03
2023-03-19T00:21:30.739Z,100991.44
2023-03-19T00:26:36.039Z,100983.06
2023-03-19T00:31:41.629Z,100990.72
2023-03-19T00:36:47.687Z,100999.09
2023-03-19T00:41:51.785Z,101000.47
2023-03-19T00:46:55.829Z,100994.97
2023-03-19T00:52:01.448Z,100989.91
2023-03-19T00:57:05.669Z,100991.69
2023-03-19T01:02:09.959Z,100993.34
2023-03-19T01:07:15.670Z,101001.56
2023-03-19T01:12:19.968Z,100998.13
2023-03-19T01:17:24.076Z,100999.88
2023-03-19T01:22:29.572Z,101003.72
2023-03-19T01:27:36.821Z,101004.94
2023-03-19T01:32:41.615Z,100998.94
2023-03-19T01:38:07.946Z,100991.41
2023-03-19T01:43:18.835Z,101002.34
2023-03-19T01:48:50.354Z,100999.75
2023-03-19T01:54:02.338Z,101010.31
2023-03-19T01:59:21.276Z,101007.84
2023-03-19T02:04:59.956Z,101012.75
2023-03-19T02:10:10.514Z,101004.31
2023-03-19T02:15:15.211Z,101012.19
2023-03-19T02:20:27.158Z,101013.28
2023-03-19T02:25:41.850Z,101010.28
2023-03-19T02:30:48.559Z,101009.69
2023-03-19T02:35:54.622Z,101022.44
2023-03-19T02:41:04.620Z,101025.53
2023-03-19T02:46:13.675Z,101014.59
2023-03-19T02:51:19.925Z,101018.69
2023-03-19T02:56:24.087Z,101016.41
2023-03-19T03:01:30.116Z,101023.06
2023-03-19T03:06:34.499Z,101026.81
2023-03-19T03:11:41.148Z,101017.81
2023-03-19T03:16:47.747Z,101035.00
2023-03-19T03:21:53.041Z,101037.09
2023-03-19T03:26:57.056Z,101024.47
2023-03-19T03:32:02.437Z,101027.06
2023-03-19T03:37:06.875Z,101037.44
2023-03-19T03:42:11.029Z,101050.97
2023-03-19T03:47:18.935Z,101050.53
2023-03-19T03:52:23.938Z,101040.66
2023-03-19T03:57:28.594Z,101043.25
2023-03-19T04:02:35.249Z,101040.31
2023-03-19T04:07:39.921Z,101036.09
2023-03-19T04:12:45.924Z,101050.66
2023-03-19T04:17:51.555Z,101047.13
2023-03-19T04:22:55.616Z,101052.13
2023-03-19T04:28:00.031Z,101045.00
2023-03-19T04:33:08.095Z,101051.63
2023-03-19T04:38:12.278Z,101055.47
2023-03-19T04:43:17.471Z,101060.44
2023-03-19T04:48:23.552Z,101066.59
2023-03-19T04:53:30.024Z,101065.44
2023-03-19T04:58:34.422Z,101077.28
2023-03-19T05:03:42.063Z,101077.78
2023-03-19T05:08:46.196Z,101089.75
2023-03-19T05:13:51.328Z,101086.19
2023-03-19T05:18:57.060Z,101092.31
2023-03-19T05:24:01.673Z,101094.84
2023-03-19T05:29:10.869Z,101095.59
2023-03-19T05:34:40.080Z,101101.38
2023-03-19T05:39:44.712Z,101098.88
2023-03-19T05:44:49.165Z,101101.72
2023-03-19T05:49:58.872Z,101125.53
2023-03-19T05:55:03.338Z,101117.63
2023-03-19T06:00:22.133Z,101128.38
2023-03-19T06:05:27.612Z,101141.94
2023-03-19T06:10:36.783Z,101141.94
2023-03-19T06:15:45.740Z,101145.47
2023-03-19T06:21:06.685Z,101152.81
2023-03-19T06:26:10.723Z,101152.34
2023-03-19T06:31:22.479Z,101154.25
2023-03-19T06:37:00.224Z,101173.81
2023-03-19T06:42:04.303Z,101174.66
2023-03-19T06:47:09.595Z,101169.09
2023-03-19T06:52:18.563Z,101179.59
2023-03-19T06:57:22.658Z,101194.91
2023-03-19T07:02:27.184Z,101175.34
2023-03-19T07:07:32.687Z,101186.78
2023-03-19T07:12:36.713Z,101194.91
2023-03-19T07:17:40.860Z,101214.50
2023-03-19T07:22:46.275Z,101221.69
2023-03-19T07:27:50.579Z,101223.22
2023-03-19T07:32:54.782Z,101225.81
2023-03-19T07:38:00.479Z,101234.22
2023-03-19T07:43:04.769Z,101235.34
2023-03-19T07:48:08.779Z,101232.72
2023-03-19T07:53:14.143Z,101236.28
2023-03-19T07:58:18.276Z,101230.47
2023-03-19T08:03:22.236Z,101244.44
2023-03-19T08:08:27.629Z,101255.22
2023-03-19T08:13:31.750Z,101251.03
2023-03-19T08:18:35.913Z,101251.31
2023-03-19T08:23:41.529Z,101262.47
2023-03-19T08:28:45.633Z,101269.94
2023-03-19T08:33:49.613Z,101268.72
2023-03-19T08:38:55.039Z,101269.19
2023-03-19T08:43:59.065Z,101276.16
2023-03-19T08:49:03.083Z,101268.16
2023-03-19T08:54:09.491Z,101262.59
2023-03-19T08:59:13.509Z,101261.63
2023-03-19T09:04:17.553Z,101258.81
2023-03-19T09:09:25.244Z,101246.16
2023-03-19T09:14:29.272Z,101243.00
2023-03-19T09:19:34.036Z,101242.41
2023-03-19T09:24:40.676Z,101260.66
2023-03-19T09:29:44.860Z,101272.19
2023-03-19T09:34:48.929Z,101275.47
2023-03-19T09:39:54.451Z,101270.16
2023-03-19T09:44:58.953Z,101266.91
2023-03-19T09:50:06.956Z,101287.22
2023-03-19T09:55:33.868Z,101287.53
2023-03-19T10:00:40.717Z,101295.50
2023-03-19T10:05:55.620Z,101311.09
2023-03-19T10:11:25.826Z,101314.09
2023-03-19T10:16:31.357Z,101309.84
2023-03-19T10:21:42.127Z,101314.94
2023-03-19T10:26:48.262Z,101315.25
2023-03-19T10:32:00.716Z,101315.59
2023-03-19T10:37:08.197Z,101326.00
2023-03-19T10:42:36.839Z,101327.06
2023-03-19T10:47:42.495Z,101331.56
2023-03-19T10:52:52.500Z,101317.63
2023-03-19T10:58:06.424Z,101330.63
2023-03-19T11:03:33.043Z,101337.81
2023-03-19T11:08:38.898Z,101327.25
2023-03-19T11:13:48.236Z,101335.81
2023-03-19T11:18:52.547Z,101332.31
2023-03-19T11:24:02.839Z,101347.88
2023-03-19T11:29:08.294Z,101347.31
2023-03-19T11:34:27.812Z,101356.19
2023-03-19T11:39:42.351Z,101360.63
2023-03-19T11:45:02.798Z,101365.13
2023-03-19T11:50:24.849Z,101366.91
2023-03-19T11:55:37.054Z,101362.16
2023-03-19T12:00:47.654Z,101369.38
2023-03-19T12:05:58.046Z,101374.84
2023-03-19T12:11:19.311Z,101373.59
2023-03-19T12:16:39.034Z,101368.22
2023-03-19T12:22:03.985Z,101369.03
2023-03-19T12:27:23.543Z,101363.00
2023-03-19T12:32:42.477Z,101364.13
2023-03-19T12:37:57.653Z,101345.38
2023-03-19T12:43:08.032Z,101360.09
2023-03-19T12:48:19.599Z,101354.03
2023-03-19T12:53:37.424Z,101363.19
2023-03-19T12:58:56.906Z,101351.72
2023-03-19T13:04:12.263Z,101353.06
2023-03-19T13:09:25.757Z,101357.63
2023-03-19T13:14:38.028Z,101355.66
2023-03-19T13:19:48.160Z,101349.81
2023-03-19T13:24:53.793Z,101340.81
2023-03-19T13:30:13.440Z,101336.41
2023-03-19T13:35:38.916Z,101335.00
2023-03-19T13:40:46.932Z,101340.53
2023-03-19T13:45:54.650Z,101359.94
2023-03-19T13:51:04.574Z,101353.66
2023-03-19T13:56:30.453Z,101361.59
2023-03-19T14:01:45.636Z,101342.19
2023-03-19T14:06:54.829Z,101347.50
2023-03-19T14:12:23.315Z,101360.53
2023-03-19T14:17:32.692Z,101364.03
2023-03-19T14:22:41.407Z,101372.66
2023-03-19T14:27:48.654Z,101379.13
2023-03-19T14:32:53.594Z,101398.84
2023-03-19T14:37:59.464Z,101400.03
2023-03-19T14:43:12.886Z,101394.03
2023-03-19T14:49:02.264Z,101406.22
2023-03-19T14:54:22.522Z,101412.00
2023-03-19T14:59:26.571Z,101410.97
2023-03-19T15:04:30.723Z,101404.00
2023-03-19T15:09:37.698Z,101403.31
2023-03-19T15:15:21.226Z,101413.47
2023-03-19T15:20:26.471Z,101425.41
2023-03-19T15:25:32.036Z,101435.06
2023-03-19T15:30:52.456Z,101429.78
2023-03-19T15:36:08.863Z,101442.38
2023-03-19T15:41:15.051Z,101454.50
2023-03-19T15:46:24.604Z,101456.31
2023-03-19T15:51:29.317Z,101458.53
2023-03-19T15:56:35.732Z,101483.84
2023-03-19T16:01:40.107Z,101496.06
2023-03-19T16:06:44.387Z,101503.88
2023-03-19T16:11:49.764Z,101486.47
2023-03-19T16:17:01.060Z,101503.03
2023-03-19T16:22:13.688Z,101495.59
2023-03-19T16:27:22.702Z,101503.03
2023-03-19T16:32:29.204Z,101510.84
2023-03-19T16:37:39.787Z,101520.44
2023-03-19T16:42:46.174Z,101541.53
2023-03-19T16:47:52.250Z,101541.59
2023-03-19T16:52:57.192Z,101555.09
2023-03-19T16:58:05.624Z,101563.91
2023-03-19T17:03:14.838Z,101584.75
2023-03-19T17:08:20.655Z,101581.66
2023-03-19T17:13:29.836Z,101603.00
2023-03-19T17:18:36.602Z,101597.72
2023-03-19T17:23:41.008Z,101607.94
2023-03-19T17:28:46.737Z,101626.03
2023-03-19T17:33:51.725Z,101629.19
2023-03-19T17:38:55.930Z,101648.59
2023-03-19T17:44:05.048Z,101671.59
2023-03-19T17:49:22.012Z,101685.81
2023-03-19T17:54:34.946Z,101687.94
2023-03-19T17:59:40.957Z,101686.63
2023-03-19T18:04:45.103Z,101692.69
2023-03-19T18:09:49.203Z,101696.22
2023-03-19T18:14:54.845Z,101713.47
2023-03-19T18:19:59.064Z,101710.06
2023-03-19T18:25:03.159Z,101726.00
2023-03-19T18:30:11.533Z,101748.66
2023-03-19T18:35:20.106Z,101747.78
2023-03-19T18:40:27.629Z,101751.22
2023-03-19T18:45:33.124Z,101767.03
2023-03-19T18:50:37.538Z,101779.44
2023-03-19T18:55:42.121Z,101782.66
2023-03-19T19:00:48.394Z,101784.16
2023-03-19T19:05:53.880Z,101784.63
2023-03-19T19:11:03.447Z,101782.38
2023-03-19T19:16:13.628Z,101788.19
2023-03-19T19:21:17.651Z,101785.47
2023-03-19T19:26:26.382Z,101810.97
2023-03-19T19:31:34.414Z,101815.78
2023-03-19T19:36:38.445Z,101804.50
2023-03-19T19:41:43.826Z,101812.34
2023-03-19T19:46:53.423Z,101815.38
2023-03-19T19:51:57.430Z,101823.84
2023-03-19T19:57:01.496Z,101824.88
2023-03-19T20:02:21.647Z,101821.56
2023-03-19T20:07:25.973Z,101840.47
2023-03-19T20:12:34.827Z,101832.19
2023-03-19T20:17:40.567Z,101844.00
2023-03-19T20:22:45.744Z,101835.19
2023-03-19T20:27:53.577Z,101848.19
2023-03-19T20:33:01.361Z,101859.63
2023-03-19T20:38:07.518Z,101872.81
2023-03-19T20:43:28.248Z,101871.47
2023-03-19T20:48:35.014Z,101880.63
2023-03-19T20:53:39.109Z,101876.28
2023-03-19T20:58:43.303Z,101879.75
2023-03-19T21:03:48.796Z,101882.69
2023-03-19T21:08:57.573Z,101876.56
2023-03-19T21:14:02.049Z,101876.25
2023-03-19T21:19:07.530Z,101877.16
2023-03-19T21:24:16.592Z,101876.66
2023-03-19T21:29:27.264Z,101871.47
2023-03-19T21:34:33.673Z,101876.59
2023-03-19T21:39:38.356Z,101870.75
2023-03-19T21:44:42.605Z,101868.56
2023-03-19T21:49:48.444Z,101863.28
2023-03-19T21:54:52.498Z,101871.78
2023-03-19T21:59:56.621Z,101875.84
2023-03-19T22:05:02.127Z,101877.72
2023-03-19T22:10:07.142Z,101882.50
2023-03-19T22:15:34.941Z,101884.16
2023-03-19T22:20:41.188Z,101881.56
2023-03-19T22:25:50.351Z,101886.88
2023-03-19T22:30:54.677Z,101880.63
2023-03-19T22:36:00.330Z,101884.28
2023-03-19T22:41:04.625Z,101886.34
2023-03-19T22:46:11.896Z,101901.56
2023-03-19T22:51:19.655Z,101915.06
2023-03-19T22:56:24.417Z,101906.19
2023-03-19T23:01:33.372Z,101904.72
2023-03-19T23:06:38.910Z,101903.47
2023-03-19T23:11:43.620Z,101916.31
2023-03-19T23:16:48.860Z,101914.78
2023-03-19T23:21:54.700Z,101934.59
2023-03-19T23:27:00.460Z,101932.53
2023-03-19T23:32:05.092Z,101931.84
2023-03-19T23:37:10.841Z,101930.22
2023-03-19T23:42:27.582Z,101941.63
2023-03-19T23:47:32.358Z,101952.81
2023-03-19T23:52:37.763Z,101941.41
2023-03-19T23:57:42.689Z,101943.56
